Tropical Cyclones
[Index]
Main Index Home Page Stock Weather Photos Extreme Storms Discussion Storm News and Storm Chasing Reports Tropical Cyclones / Hurricanes / Typhoons Weather Data and Links Wild Fires / Bushfires Weather Observation Techniques Weather Picture Catalogue Tornado Pictures and Reports Stock Video Footage and DVDs for sale
Season 2017-2018 Tropical Cyclone GITA Track Map
Season 2017-2018 Summaries: [BoM-AU] [JTWC-AU] [JTWC-SIO] [JTWC-SPAC] [JTWC-SH]
<<- Previous TC | JTWC 2017-2018 Season | Next TC ->>

click for intensity scale information  Lat/long Grid: Show Hide

 Date Labels: Show Hide

Joint Typhoon Warning Centre Cyclone Data

Name: GITA

07 Feb 2018 06:00 UTC to 20 Feb 2018 00:00 UTC

    date/time    lat    long     hPa   cat  kts
2018-02-07 06   15.4   172.1    1007         20          
2018-02-07 12   15.7   173.6    1007         20          
2018-02-07 18   16.0   175.4    1004         25          
2018-02-08 00   16.3   177.2    1004         25          
2018-02-08 06   16.0   179.0    1000         30          
2018-02-08 12   15.7   179.3W    996         35          
2018-02-08 18   14.5   177.6W    989    1    45          
2018-02-09 00   14.0   175.5W    989    1    45          
2018-02-09 06   14.1   174.4W    989    1    45          
2018-02-09 12   14.4   172.9W    985    1    50          
2018-02-09 18   15.0   171.4W    982    2    55          
2018-02-09 18   15.0   171.4W    982    2    55          
2018-02-10 00   15.8   169.8W    978    2    60          
2018-02-10 00   15.8   169.8W    978    2    60          
2018-02-10 06   17.2   168.9W    974    2    65          
2018-02-10 06   17.2   168.9W    974    2    65          
2018-02-10 12   18.5   168.5W    970    2    70          
2018-02-10 12   18.5   168.5W    970    2    70          
2018-02-10 12   18.5   168.5W    970    2    70          
2018-02-10 18   19.5   168.3W    967    3    75          
2018-02-10 18   19.5   168.3W    967    3    75          
2018-02-10 18   19.5   168.3W    967    3    75          
2018-02-11 00   20.5   168.4W    963    3    85          
2018-02-11 00   20.5   168.4W    963    3    85          
2018-02-11 00   20.5   168.4W    963    3    85          
2018-02-11 06   21.0   169.1W    956    3    90          
2018-02-11 06   21.0   169.1W    956    3    90          
2018-02-11 06   21.0   169.1W    956    3    90          
2018-02-11 12   21.4   170.0W    952    3    95          
2018-02-11 12   21.4   170.0W    952    3    95          
2018-02-11 12   21.4   170.0W    952    3    95          
2018-02-11 18   21.7   171.4W    948    4   100          
2018-02-11 18   21.7   171.4W    948    4   100          
2018-02-11 18   21.7   171.4W    948    4   100          
2018-02-12 00   21.7   172.7W    937    4   115          
2018-02-12 00   21.7   172.7W    937    4   115          
2018-02-12 00   21.7   172.7W    937    4   115          
2018-02-12 06   21.5   174.1W    929    5   125          
2018-02-12 06   21.5   174.1W    929    5   125          
2018-02-12 06   21.5   174.1W    929    5   125          
2018-02-12 12   21.3   175.8W    933    4   120          
2018-02-12 12   21.3   175.8W    933    4   120          
2018-02-12 12   21.3   175.8W    933    4   120          
2018-02-12 18   21.3   177.2W    937    4   115          
2018-02-12 18   21.3   177.2W    937    4   115          
2018-02-12 18   21.3   177.2W    937    4   115          
2018-02-13 00   21.2   178.5W    941    4   110          
2018-02-13 00   21.2   178.5W    941    4   110          
2018-02-13 00   21.2   178.5W    941    4   110          
2018-02-13 06   21.0   179.6W    941    4   110          
2018-02-13 06   21.0   179.6W    941    4   110          
2018-02-13 06   21.0   179.6W    941    4   110          
2018-02-13 12   21.0   179.3     941    4   110          
2018-02-13 12   21.0   179.3     941    4   110          
2018-02-13 12   21.0   179.3     941    4   110          
2018-02-13 18   21.0   178.4     937    4   115          
2018-02-13 18   21.0   178.4     937    4   115          
2018-02-13 18   21.0   178.4     937    4   115          
2018-02-14 00   21.1   177.5     938    4   115          
2018-02-14 00   21.1   177.5     938    4   115          
2018-02-14 00   21.1   177.5     938    4   115          
2018-02-14 06   21.2   176.8     941    4   110          
2018-02-14 06   21.2   176.8     941    4   110          
2018-02-14 06   21.2   176.8     941    4   110          
2018-02-14 12   21.4   175.9     941    4   110          
2018-02-14 12   21.4   175.9     941    4   110          
2018-02-14 12   21.4   175.9     941    4   110          
2018-02-14 18   21.4   175.1     948    4   100          
2018-02-14 18   21.4   175.1     948    4   100          
2018-02-14 18   21.4   175.1     948    4   100          
2018-02-15 00   21.5   174.2     952    3    95          
2018-02-15 00   21.5   174.2     952    3    95          
2018-02-15 00   21.5   174.2     952    3    95          
2018-02-15 06   21.8   173.4     952    3    95          
2018-02-15 06   21.8   173.4     952    3    95          
2018-02-15 06   21.8   173.4     952    3    95          
2018-02-15 12   22.0   172.2     951    4   100          
2018-02-15 12   22.0   172.2     951    4   100          
2018-02-15 12   22.0   172.2     951    4   100          
2018-02-15 18   22.3   171.1     949    4   100          
2018-02-15 18   22.3   171.1     949    4   100          
2018-02-15 18   22.3   171.1     949    4   100          
2018-02-16 00   22.6   169.9     953    3    95          
2018-02-16 00   22.6   169.9     953    3    95          
2018-02-16 00   22.6   169.9     953    3    95          
2018-02-16 06   23.0   169.0     956    3    90          
2018-02-16 06   23.0   169.0     956    3    90          
2018-02-16 06   23.0   169.0     956    3    90          
2018-02-16 12   23.5   168.0     963    3    80          
2018-02-16 12   23.5   168.0     963    3    80          
2018-02-16 12   23.5   168.0     963    3    80          
2018-02-16 18   23.9   167.3     967    3    75          
2018-02-16 18   23.9   167.3     967    3    75          
2018-02-16 18   23.9   167.3     967    3    75          
2018-02-17 00   24.5   166.4     969    2    70          
2018-02-17 00   24.5   166.4     969    2    70          
2018-02-17 00   24.5   166.4     969    2    70          
2018-02-17 06   25.0   165.6     972    2    65          
2018-02-17 06   25.0   165.6     972    2    65          
2018-02-17 06   25.0   165.6     972    2    65          
2018-02-17 12   25.5   164.8     982    2    55          
2018-02-17 12   25.5   164.8     982    2    55          
2018-02-17 18   26.0   164.0     982    2    55          
2018-02-17 18   26.0   164.0     982    2    55          
2018-02-18 00   26.6   163.3     982    2    55          
2018-02-18 00   26.6   163.3     982    2    55          
2018-02-18 06   27.3   162.7     982    2    55          
2018-02-18 06   27.3   162.7     982    2    55          
2018-02-18 12   27.9   162.2     982    2    55          
2018-02-18 12   27.9   162.2     982    2    55          
2018-02-18 18   29.2   161.8     982    2    55          
2018-02-18 18   29.2   161.8     982    2    55          
2018-02-19 00   30.8   162.0     982    2    55          
2018-02-19 00   30.8   162.0     982    2    55          
2018-02-19 06   32.4   162.8     982    2    55          
2018-02-19 06   32.4   162.8     982    2    55          
2018-02-19 12   34.2   164.2     982    2    55          
2018-02-19 12   34.2   164.2     982    2    55          
2018-02-19 18   35.8   167.0     982    2    55          
2018-02-19 18   35.8   167.0     982    2    55          
2018-02-20 00   37.8   169.7     985    1    50          
2018-02-20 00   37.8   169.7     985    1    50          
Winds are 1-min average.

Tropical cyclone tracks developed by Michael Bath using data from the Joint Typhoon Warning Centre Best Tracks and Google Maps.


[Australian Severe Weather index] [Copyright Notice] [Email Contacts] [Search This Site] [Privacy Policy]
Document: tropical_cyclone_gita.htm Updated: 12 March 2020